Moose, WY

11:44 AM MDT on April 27, 2017 (GMT -0600)
Craighead Beringia South | | Change Station
Active Advisory: Winter Weather Advisory Active Notice: Public Information Statement

Elev 6654 ft 43.62 °N, 110.62 °W | Updated 3 minutes ago

Overcast
Overcast
37.5 °F
Feels Like 38 °F
N
0.0
Wind Variable Wind from ENE
Gusts 0.0 mph

Today
High -- | Low -- °F
--% Chance of Precip.
Yesterday
High -- | Low -- °F
Precip. -- in
Pressure 29.65 in
Visibility 8.0 miles
Clouds Mostly Cloudy 1200 ft
Windchill 38 °F
Dew Point 28 °F
Humidity 68%
Rainfall 0.00 in
Snow Depth Not available.
6:20 AM 8:21 PM
New Moon, 2% visible
METAR KJAC 271651Z 19004KT 8SM -SN BKN012 01/M02 A2965
Pressure 29.65 in
Visibility 8.0 miles
Clouds Mostly Cloudy 1200 ft
Windchill 38 °F
Dew Point 28 °F
Humidity 68%
Rainfall 0.00 in
Snow Depth Not available.
6:20 AM 8:21 PM
New Moon, 2% visible
METAR KJAC 271651Z 19004KT 8SM -SN BKN012 01/M02 A2965

Get Your Daily Forecast Email!

Thanks for signing up!

Be on the lookout for a verification email in your inbox.

You'll start receiving severe weather alerts in your inbox..

×

10-Day Weather Forecast

Almanac

Astronomy

Apr. 27, 2017 Rise Set
Actual Time
Civil Twilight
Nautical Twilight
Astronomical Twilight
Moon
Length of Visible Light
Length of Day
Tomorrow will be .
, % of the Moon is Illuminated

Today's Extremes

State Highs State Lows

Community

WunderPhotos

WunderBlog® & News

Nearby

Air Quality

  Air Quality AQ Index Pollutant
Not available.

Snow Depth

Station Depth Elevation

Earthquake Activity

City Distance Mag. Time & Date
Minimum magnitude displayed is 2.5.

Coastal Water Temperatures

Place Temperature

Stations

Nearby Weather Stations

Station Location Temp. Windchill Dew Point Humidity Wind Precip. Elev Updated Type
                   

Watches & Warnings

Winter Weather Advisory
Issued: 5:14 AM MDT Apr. 27, 2017 – National Weather Service

... Winter Weather Advisory remains in effect until noon MDT
today...

* timing... periods of snow will continue today. The heaviest snow
will occur through 9 am, before the snow begins to decrease in
coverage and intensity.

* Estimated snowfall through 2 am Thursday... 2 to 4 inches.

* Total snowfall... 6 to 12 inches.

* Main impacts... Teton and togwotee mountain passes will be slick
and snow covered. Visibility could be reduced to under a quarter
mile at times especially in heavier snow this morning.

Precautionary/preparedness actions...

A Winter Weather Advisory for snow means periods of snow will
cause primarily travel difficulties. Be prepared for snow covered
and slick roads with limited visibilities. Slow down, and allow
extra time to reach your destination. Check the latest Road
conditions at wyoroad.Info or by dialing 5 1 1.